createdAt,value
2018-12-01T00:00:49.415Z,8.50
2018-12-01T00:01:49.415Z,8.50
2018-12-01T00:02:49.434Z,8.53
2018-12-01T00:03:49.410Z,8.50
2018-12-01T00:04:49.446Z,8.48
2018-12-01T00:05:49.445Z,8.50
2018-12-01T00:06:49.430Z,8.50
2018-12-01T00:07:49.423Z,8.40
2018-12-01T00:08:49.446Z,8.43
2018-12-01T00:09:49.404Z,8.45
2018-12-01T00:10:49.411Z,8.41
2018-12-01T00:11:49.447Z,8.43
2018-12-01T00:12:49.414Z,8.43
2018-12-01T00:13:49.400Z,8.38
2018-12-01T00:14:49.453Z,8.33
2018-12-01T00:15:49.422Z,8.36
2018-12-01T00:16:49.425Z,8.37
2018-12-01T00:17:49.416Z,8.41
2018-12-01T00:18:49.400Z,8.43
2018-12-01T00:19:49.393Z,8.33
2018-12-01T00:20:49.413Z,8.33
2018-12-01T00:21:49.410Z,8.33
2018-12-01T00:22:49.405Z,8.34
2018-12-01T00:23:49.433Z,8.33
2018-12-01T00:24:49.401Z,8.28
2018-12-01T00:25:49.383Z,8.25
2018-12-01T00:26:49.384Z,8.26
2018-12-01T00:27:49.401Z,8.20
2018-12-01T00:28:49.399Z,8.16
2018-12-01T00:29:49.393Z,8.19
2018-12-01T00:30:49.382Z,8.22
2018-12-01T00:31:49.414Z,8.20
2018-12-01T00:32:49.386Z,8.29
2018-12-01T00:33:49.401Z,8.23
2018-12-01T00:34:49.400Z,8.30
2018-12-01T00:35:49.389Z,8.26
2018-12-01T00:36:49.381Z,8.33
2018-12-01T00:37:49.405Z,8.25
2018-12-01T00:38:49.374Z,8.20
2018-12-01T00:39:49.378Z,8.11
2018-12-01T00:40:49.391Z,8.19
2018-12-01T00:41:49.389Z,8.29
2018-12-01T00:42:49.379Z,8.16
2018-12-01T00:43:49.370Z,8.16
2018-12-01T00:44:49.371Z,8.19
2018-12-01T00:45:49.379Z,8.19
2018-12-01T00:46:49.365Z,8.29
2018-12-01T00:47:49.377Z,8.23
2018-12-01T00:48:49.378Z,8.22
2018-12-01T00:49:49.365Z,8.18
2018-12-01T00:50:49.385Z,8.25
2018-12-01T00:51:49.372Z,8.19
2018-12-01T00:52:49.394Z,8.25
2018-12-01T00:53:49.362Z,8.23
2018-12-01T00:54:49.381Z,8.33
2018-12-01T00:55:49.374Z,8.26
2018-12-01T00:56:49.384Z,8.33
2018-12-01T00:57:49.399Z,8.34
2018-12-01T00:58:49.381Z,8.29
2018-12-01T00:59:49.388Z,8.36
2018-12-01T01:00:49.398Z,8.28
2018-12-01T01:01:49.373Z,8.25
2018-12-01T01:02:49.362Z,8.25
2018-12-01T01:03:49.356Z,8.26
2018-12-01T01:04:49.384Z,8.26
2018-12-01T01:05:49.377Z,8.20
2018-12-01T01:06:49.348Z,8.19
2018-12-01T01:07:49.347Z,8.12
2018-12-01T01:08:49.384Z,8.07
2018-12-01T01:09:49.353Z,8.04
2018-12-01T01:10:49.345Z,8.11
2018-12-01T01:11:49.341Z,8.07
2018-12-01T01:12:49.359Z,8.15
2018-12-01T01:13:49.343Z,8.16
2018-12-01T01:14:49.366Z,8.08
2018-12-01T01:15:49.350Z,8.07
2018-12-01T01:16:49.334Z,8.07
2018-12-01T01:17:49.344Z,8.11
2018-12-01T01:18:49.351Z,8.19
2018-12-01T01:19:49.345Z,8.00
2018-12-01T01:20:49.345Z,8.10
2018-12-01T01:21:49.332Z,8.05
2018-12-01T01:22:49.329Z,8.04
2018-12-01T01:23:49.343Z,8.05
2018-12-01T01:24:49.333Z,8.05
2018-12-01T01:25:49.326Z,8.08
2018-12-01T01:26:49.321Z,8.00
2018-12-01T01:27:49.328Z,8.01
2018-12-01T01:28:49.356Z,8.04
2018-12-01T01:29:49.327Z,8.07
2018-12-01T01:30:49.343Z,8.02
2018-12-01T01:31:49.334Z,8.04
2018-12-01T01:32:49.326Z,7.98
2018-12-01T01:33:49.327Z,8.05
2018-12-01T01:34:49.325Z,8.02
2018-12-01T01:35:49.339Z,8.01
2018-12-01T01:36:49.322Z,7.87
2018-12-01T01:37:49.343Z,8.04
2018-12-01T01:38:49.348Z,8.02
2018-12-01T01:39:49.317Z,7.95
2018-12-01T01:40:49.323Z,8.01
2018-12-01T01:41:49.316Z,8.01
2018-12-01T01:42:49.310Z,8.00
2018-12-01T01:43:49.316Z,8.00
2018-12-01T01:44:49.308Z,7.87
2018-12-01T01:45:49.314Z,7.90
2018-12-01T01:46:49.313Z,7.97
2018-12-01T01:47:49.340Z,7.95
2018-12-01T01:48:49.314Z,7.90
2018-12-01T01:49:49.339Z,7.95
2018-12-01T01:50:49.305Z,7.89
2018-12-01T01:51:49.309Z,7.90
2018-12-01T01:52:49.295Z,7.87
2018-12-01T01:53:49.320Z,7.87
2018-12-01T01:54:49.307Z,7.87
2018-12-01T01:55:49.311Z,7.95
2018-12-01T01:56:49.311Z,7.85
2018-12-01T01:57:49.297Z,7.85
2018-12-01T01:58:49.287Z,7.87
2018-12-01T01:59:49.293Z,7.83
2018-12-01T02:00:49.301Z,7.82
2018-12-01T02:01:49.300Z,7.85
2018-12-01T02:02:49.283Z,7.85
2018-12-01T02:03:49.306Z,7.89
2018-12-01T02:04:49.294Z,7.83
2018-12-01T02:05:49.300Z,7.83
2018-12-01T02:06:49.286Z,7.85
2018-12-01T02:07:49.291Z,7.85
2018-12-01T02:08:49.307Z,7.79
2018-12-01T02:09:49.282Z,7.79
2018-12-01T02:10:49.301Z,7.79
2018-12-01T02:11:49.283Z,7.72
2018-12-01T02:12:49.285Z,7.80
2018-12-01T02:13:49.278Z,7.71
2018-12-01T02:14:49.276Z,7.71
2018-12-01T02:15:49.284Z,7.71
2018-12-01T02:16:49.294Z,7.60
2018-12-01T02:17:49.268Z,7.71
2018-12-01T02:18:49.271Z,7.58
2018-12-01T02:19:49.286Z,7.61
2018-12-01T02:20:49.277Z,7.71
2018-12-01T02:21:49.268Z,7.61
2018-12-01T02:22:49.270Z,7.63
2018-12-01T02:23:49.312Z,7.60
2018-12-01T02:24:49.271Z,7.60
2018-12-01T02:25:49.263Z,7.63
2018-12-01T02:26:49.267Z,7.53
2018-12-01T02:27:49.254Z,7.52
2018-12-01T02:28:49.253Z,7.49
2018-12-01T02:29:49.262Z,7.49
2018-12-01T02:30:49.255Z,7.42
2018-12-01T02:31:49.264Z,7.42
2018-12-01T02:32:49.270Z,7.49
2018-12-01T02:33:49.261Z,7.46
2018-12-01T02:34:49.254Z,7.53
2018-12-01T02:35:49.245Z,7.52
2018-12-01T02:36:49.254Z,7.53
2018-12-01T02:37:49.251Z,7.61
2018-12-01T02:38:49.260Z,7.61
2018-12-01T02:39:49.255Z,7.61
2018-12-01T02:40:49.251Z,7.64
2018-12-01T02:41:49.238Z,7.60
2018-12-01T02:42:49.262Z,7.60
2018-12-01T02:43:49.238Z,7.57
2018-12-01T02:44:49.260Z,7.61
2018-12-01T02:45:49.262Z,7.63
2018-12-01T02:46:49.272Z,7.63
2018-12-01T02:47:49.251Z,7.52
2018-12-01T02:48:49.259Z,7.58
2018-12-01T02:49:49.229Z,7.55
2018-12-01T02:50:49.236Z,7.61
2018-12-01T02:51:49.227Z,7.58
2018-12-01T02:52:49.241Z,7.63
2018-12-01T02:53:49.231Z,7.53
2018-12-01T02:54:49.234Z,7.53
2018-12-01T02:55:49.251Z,7.50
2018-12-01T02:56:49.245Z,7.50
2018-12-01T02:57:49.231Z,7.50
2018-12-01T02:58:49.252Z,7.55
2018-12-01T02:59:49.218Z,7.50
2018-12-01T03:00:49.242Z,7.49
2018-12-01T03:01:49.221Z,7.42
2018-12-01T03:02:49.223Z,7.46
2018-12-01T03:03:49.212Z,7.48
2018-12-01T03:04:49.222Z,7.45
2018-12-01T03:05:49.229Z,7.46
2018-12-01T03:06:49.213Z,7.43
2018-12-01T03:07:49.235Z,7.42
2018-12-01T03:08:49.222Z,7.43
2018-12-01T03:09:49.207Z,7.43
2018-12-01T03:10:49.200Z,7.39
2018-12-01T03:11:49.201Z,7.43
2018-12-01T03:12:49.199Z,7.40
2018-12-01T03:13:49.217Z,7.32
2018-12-01T03:14:49.201Z,7.28
2018-12-01T03:15:49.210Z,7.35
2018-12-01T03:16:49.217Z,7.34
2018-12-01T03:17:49.208Z,7.42
2018-12-01T03:18:49.209Z,7.34
2018-12-01T03:19:49.200Z,7.40
2018-12-01T03:20:49.210Z,7.40
2018-12-01T03:21:49.195Z,7.42
2018-12-01T03:22:49.207Z,7.39
2018-12-01T03:23:49.195Z,7.37
2018-12-01T03:24:49.206Z,7.40
2018-12-01T03:25:49.183Z,7.35
2018-12-01T03:26:49.181Z,7.40
2018-12-01T03:27:49.192Z,7.42
2018-12-01T03:28:49.171Z,7.31
2018-12-01T03:29:49.176Z,7.39
2018-12-01T03:30:49.201Z,7.35
2018-12-01T03:31:49.194Z,7.39
2018-12-01T03:32:49.208Z,7.34
2018-12-01T03:33:49.185Z,7.28
2018-12-01T03:34:49.186Z,7.27
2018-12-01T03:35:49.182Z,7.25
2018-12-01T03:36:49.165Z,7.23
2018-12-01T03:37:49.168Z,7.32
2018-12-01T03:38:49.167Z,7.27
2018-12-01T03:39:49.177Z,7.31
2018-12-01T03:40:49.161Z,7.24
2018-12-01T03:41:49.188Z,7.35
2018-12-01T03:42:49.186Z,7.30
2018-12-01T03:43:49.169Z,7.30
2018-12-01T03:44:49.153Z,7.32
2018-12-01T03:45:49.164Z,7.32
2018-12-01T03:46:49.162Z,7.31
2018-12-01T03:47:49.175Z,7.31
2018-12-01T03:48:49.149Z,7.27
2018-12-01T03:49:49.160Z,7.23
2018-12-01T03:50:49.156Z,7.21
2018-12-01T03:51:49.152Z,7.21
2018-12-01T03:52:49.156Z,7.20
2018-12-01T03:53:49.147Z,7.27
2018-12-01T03:54:49.191Z,7.21
2018-12-01T03:55:49.172Z,7.27
2018-12-01T03:56:49.146Z,7.20
2018-12-01T03:57:49.145Z,7.25
2018-12-01T03:58:49.138Z,7.21
2018-12-01T03:59:49.158Z,7.23
2018-12-01T04:00:49.149Z,7.27
2018-12-01T04:01:49.142Z,7.20
2018-12-01T04:02:49.162Z,7.15
2018-12-01T04:03:49.133Z,7.25
2018-12-01T04:04:49.152Z,7.21
2018-12-01T04:05:49.132Z,7.25
2018-12-01T04:06:49.136Z,7.21
2018-12-01T04:07:49.140Z,7.21
2018-12-01T04:08:49.120Z,7.25
2018-12-01T04:09:49.120Z,7.31
2018-12-01T04:10:49.128Z,7.27
2018-12-01T04:11:49.120Z,7.31
2018-12-01T04:12:49.114Z,7.23
2018-12-01T04:13:49.142Z,7.32
2018-12-01T04:14:49.107Z,7.21
2018-12-01T04:15:49.132Z,7.17
2018-12-01T04:16:49.131Z,7.28
2018-12-01T04:17:49.106Z,7.23
2018-12-01T04:18:49.114Z,7.27
2018-12-01T04:19:49.117Z,7.20
2018-12-01T04:20:49.101Z,7.17
2018-12-01T04:21:49.146Z,7.21
2018-12-01T04:22:49.102Z,7.21
2018-12-01T04:23:49.109Z,7.21
2018-12-01T04:24:49.103Z,7.27
2018-12-01T04:25:49.090Z,7.32
2018-12-01T04:26:49.094Z,7.31
2018-12-01T04:27:49.094Z,7.42
2018-12-01T04:28:49.091Z,7.35
2018-12-01T04:29:49.085Z,7.43
2018-12-01T04:30:49.092Z,7.39
2018-12-01T04:31:49.103Z,7.37
2018-12-01T04:32:49.109Z,7.37
2018-12-01T04:33:49.098Z,7.42
2018-12-01T04:34:49.089Z,7.46
2018-12-01T04:35:49.082Z,7.43
2018-12-01T04:36:49.089Z,7.45
2018-12-01T04:37:49.097Z,7.46
2018-12-01T04:38:49.085Z,7.46
2018-12-01T04:39:49.085Z,7.46
2018-12-01T04:40:49.067Z,7.43
2018-12-01T04:41:49.081Z,7.49
2018-12-01T04:42:49.082Z,7.46
2018-12-01T04:43:49.065Z,7.49
2018-12-01T04:44:49.076Z,7.50
2018-12-01T04:45:49.095Z,7.60
2018-12-01T04:46:49.090Z,7.53
2018-12-01T04:47:49.073Z,7.58
2018-12-01T04:48:49.074Z,7.60
2018-12-01T04:49:49.063Z,7.61
2018-12-01T04:50:49.079Z,7.61
2018-12-01T04:51:49.075Z,7.74
2018-12-01T04:52:49.049Z,7.63
2018-12-01T04:53:49.079Z,7.60
2018-12-01T04:54:49.071Z,7.71
2018-12-01T04:55:49.065Z,7.71
2018-12-01T04:56:49.074Z,7.75
2018-12-01T04:57:49.082Z,7.79
2018-12-01T04:58:49.053Z,7.68
2018-12-01T04:59:49.092Z,7.80
2018-12-01T05:00:49.072Z,7.77
2018-12-01T05:01:49.038Z,7.80
2018-12-01T05:02:49.038Z,7.85
2018-12-01T05:03:49.048Z,7.67
2018-12-01T05:04:49.053Z,7.86
2018-12-01T05:05:49.071Z,7.85
2018-12-01T05:06:49.035Z,7.79
2018-12-01T05:07:49.031Z,7.85
2018-12-01T05:08:49.444Z,7.82
2018-12-01T05:09:49.052Z,7.87
2018-12-01T05:10:49.045Z,7.86
2018-12-01T05:11:49.038Z,7.87
2018-12-01T05:12:49.029Z,7.79
2018-12-01T05:13:49.034Z,7.85
2018-12-01T05:14:49.036Z,7.87
2018-12-01T05:15:49.043Z,7.79
2018-12-01T05:16:49.045Z,7.85
2018-12-01T05:17:49.049Z,7.80
2018-12-01T05:18:49.036Z,7.83
2018-12-01T05:19:49.027Z,7.80
2018-12-01T05:20:49.038Z,7.69
2018-12-01T05:21:49.020Z,7.83
2018-12-01T05:22:49.039Z,7.69
2018-12-01T05:23:49.014Z,7.74
2018-12-01T05:24:49.025Z,7.85
2018-12-01T05:25:49.010Z,7.83
2018-12-01T05:26:49.010Z,7.83
2018-12-01T05:27:49.033Z,7.86
2018-12-01T05:28:49.005Z,7.75
2018-12-01T05:29:49.015Z,7.71
2018-12-01T05:30:49.001Z,7.85
2018-12-01T05:31:49.001Z,7.87
2018-12-01T05:32:49.027Z,7.86
2018-12-01T05:33:49.026Z,7.86
2018-12-01T05:34:49.005Z,7.82
2018-12-01T05:35:49.003Z,7.82
2018-12-01T05:36:49.007Z,7.87
2018-12-01T05:37:49.021Z,7.82
2018-12-01T05:38:49.001Z,7.83
2018-12-01T05:39:48.999Z,7.83
2018-12-01T05:40:49.000Z,7.79
2018-12-01T05:41:48.993Z,7.86
2018-12-01T05:42:49.014Z,7.85
2018-12-01T05:43:48.987Z,7.79
2018-12-01T05:44:49.006Z,7.82
2018-12-01T05:45:49.017Z,7.83
2018-12-01T05:46:48.993Z,7.87
2018-12-01T05:47:48.989Z,7.86
2018-12-01T05:48:49.016Z,7.85
2018-12-01T05:49:49.001Z,7.82
2018-12-01T05:50:48.993Z,7.82
2018-12-01T05:51:48.994Z,7.83
2018-12-01T05:52:48.974Z,7.89
2018-12-01T05:53:48.981Z,7.89
2018-12-01T05:54:48.979Z,7.89
2018-12-01T05:55:48.978Z,7.87
2018-12-01T05:56:48.973Z,7.87
2018-12-01T05:57:48.994Z,7.93
2018-12-01T05:58:48.963Z,7.92
2018-12-01T05:59:49.015Z,7.97
2018-12-01T06:00:48.991Z,8.00
2018-12-01T06:01:48.978Z,8.04
2018-12-01T06:02:48.968Z,8.05
2018-12-01T06:03:48.974Z,8.02
2018-12-01T06:04:48.975Z,8.05
2018-12-01T06:05:48.959Z,8.07
2018-12-01T06:06:48.977Z,8.07
2018-12-01T06:07:48.961Z,8.11
2018-12-01T06:08:48.963Z,8.07
2018-12-01T06:09:48.972Z,8.02
2018-12-01T06:10:48.953Z,8.11
2018-12-01T06:11:48.954Z,8.08
2018-12-01T06:12:48.949Z,8.02
2018-12-01T06:13:48.954Z,8.11
2018-12-01T06:14:48.966Z,8.10
2018-12-01T06:15:48.953Z,8.07
2018-12-01T06:16:48.953Z,8.11
2018-12-01T06:17:48.943Z,8.10
2018-12-01T06:18:48.950Z,8.11
2018-12-01T06:19:48.947Z,8.12
2018-12-01T06:20:48.958Z,8.04
2018-12-01T06:21:48.965Z,8.04
2018-12-01T06:22:48.941Z,8.11
2018-12-01T06:23:48.958Z,8.12
2018-12-01T06:24:48.941Z,8.18
2018-12-01T06:25:48.936Z,8.22
2018-12-01T06:26:48.942Z,8.16
2018-12-01T06:27:48.946Z,8.07
2018-12-01T06:28:48.942Z,8.07
2018-12-01T06:29:48.953Z,8.02
2018-12-01T06:30:48.943Z,8.05
2018-12-01T06:31:48.924Z,8.11
2018-12-01T06:32:48.921Z,8.05
2018-12-01T06:33:48.944Z,8.04
2018-12-01T06:34:48.968Z,8.18
2018-12-01T06:35:48.937Z,8.20
2018-12-01T06:36:48.923Z,8.22
2018-12-01T06:37:50.747Z,8.12
2018-12-01T06:38:48.923Z,8.16
2018-12-01T06:39:48.926Z,8.19
2018-12-01T06:40:48.923Z,8.07
2018-12-01T06:41:48.957Z,8.08
2018-12-01T06:42:48.932Z,8.07
2018-12-01T06:43:48.921Z,8.08
2018-12-01T06:44:48.951Z,8.18
2018-12-01T06:45:48.930Z,8.20
2018-12-01T06:46:48.924Z,8.20
2018-12-01T06:47:48.936Z,8.25
2018-12-01T06:48:48.919Z,8.18
2018-12-01T06:49:48.916Z,8.19
2018-12-01T06:50:48.919Z,8.23
2018-12-01T06:51:48.909Z,8.18
2018-12-01T06:52:48.931Z,8.16
2018-12-01T06:53:48.916Z,8.15
2018-12-01T06:54:48.932Z,8.19
2018-12-01T06:55:48.904Z,8.26
2018-12-01T06:56:48.923Z,8.19
2018-12-01T06:57:48.905Z,8.26
2018-12-01T06:58:48.902Z,8.28
2018-12-01T06:59:48.908Z,8.26
2018-12-01T07:00:48.904Z,8.23
2018-12-01T07:01:48.904Z,8.22
2018-12-01T07:02:48.915Z,8.22
2018-12-01T07:03:48.913Z,8.23
2018-12-01T07:04:48.926Z,8.36
2018-12-01T07:05:48.899Z,8.43
2018-12-01T07:06:48.893Z,8.37
2018-12-01T07:07:48.902Z,8.36
2018-12-01T07:08:48.886Z,8.37
2018-12-01T07:09:48.927Z,8.33
2018-12-01T07:10:48.898Z,8.33
2018-12-01T07:11:48.916Z,8.36
2018-12-01T07:12:48.923Z,8.28
2018-12-01T07:13:48.888Z,8.30
2018-12-01T07:14:48.895Z,8.30
2018-12-01T07:15:48.901Z,8.30
2018-12-01T07:16:48.884Z,8.33
2018-12-01T07:17:48.893Z,8.34
2018-12-01T07:18:48.883Z,8.33
2018-12-01T07:19:48.901Z,8.34
2018-12-01T07:20:48.896Z,8.37
2018-12-01T07:21:48.882Z,8.38
2018-12-01T07:22:48.901Z,8.37
2018-12-01T07:23:48.917Z,8.37
2018-12-01T07:24:48.947Z,8.44
2018-12-01T07:25:48.874Z,8.41
2018-12-01T07:26:48.870Z,8.45
2018-12-01T07:27:48.880Z,8.44
2018-12-01T07:28:48.890Z,8.41
2018-12-01T07:29:48.881Z,8.34
2018-12-01T07:30:48.870Z,8.40
2018-12-01T07:31:48.879Z,8.30
2018-12-01T07:32:48.859Z,8.40
2018-12-01T07:33:48.858Z,8.36
2018-12-01T07:34:48.861Z,8.44
2018-12-01T07:35:48.865Z,8.41
2018-12-01T07:36:48.881Z,8.43
2018-12-01T07:37:48.871Z,8.41
2018-12-01T07:38:48.864Z,8.36
2018-12-01T07:39:48.851Z,8.37
2018-12-01T07:40:48.870Z,8.38
2018-12-01T07:41:48.870Z,8.40
2018-12-01T07:42:48.855Z,8.38
2018-12-01T07:43:48.864Z,8.45
2018-12-01T07:44:48.861Z,8.43
2018-12-01T07:45:48.850Z,8.38
2018-12-01T07:46:48.884Z,8.52
2018-12-01T07:47:48.852Z,8.48
2018-12-01T07:48:48.846Z,8.52
2018-12-01T07:49:48.851Z,8.50
2018-12-01T07:50:48.865Z,8.53
2018-12-01T07:51:48.870Z,8.61
2018-12-01T07:52:48.880Z,8.56
2018-12-01T07:53:48.838Z,8.66
2018-12-01T07:54:48.863Z,8.65
2018-12-01T07:55:48.844Z,8.77
2018-12-01T07:56:48.845Z,8.74
2018-12-01T07:57:48.852Z,8.83
2018-12-01T07:58:48.859Z,8.83
2018-12-01T07:59:48.873Z,8.91
2018-12-01T08:00:48.840Z,8.95
2018-12-01T08:01:48.863Z,8.95
2018-12-01T08:02:48.856Z,8.89
2018-12-01T08:03:48.848Z,8.96
2018-12-01T08:04:48.864Z,8.96
2018-12-01T08:05:48.875Z,8.95
2018-12-01T08:06:48.840Z,8.96
2018-12-01T08:07:48.839Z,8.94
2018-12-01T08:08:48.846Z,9.01
2018-12-01T08:09:48.860Z,8.96
2018-12-01T08:10:48.834Z,9.02
2018-12-01T08:11:48.835Z,8.94
2018-12-01T08:12:48.832Z,8.99
2018-12-01T08:13:48.830Z,9.04
2018-12-01T08:14:48.828Z,9.14
2018-12-01T08:15:48.843Z,9.20
2018-12-01T08:16:48.870Z,9.17
2018-12-01T08:17:48.846Z,9.26
2018-12-01T08:18:48.832Z,9.24
2018-12-01T08:19:48.861Z,9.32
2018-12-01T08:20:48.825Z,9.20
2018-12-01T08:21:48.821Z,9.20
2018-12-01T08:22:48.829Z,9.20
2018-12-01T08:23:48.832Z,9.18
2018-12-01T08:24:48.836Z,9.23
2018-12-01T08:25:48.826Z,9.15
2018-12-01T08:26:48.818Z,9.18
2018-12-01T08:27:48.822Z,9.08
2018-12-01T08:28:48.817Z,9.02
2018-12-01T08:29:48.847Z,9.08
2018-12-01T08:30:48.822Z,8.99
2018-12-01T08:31:48.840Z,9.08
2018-12-01T08:32:48.846Z,9.10
2018-12-01T08:33:48.806Z,9.17
2018-12-01T08:34:48.806Z,9.14
2018-12-01T08:35:48.811Z,9.11
2018-12-01T08:36:48.816Z,9.13
2018-12-01T08:37:48.808Z,9.18
2018-12-01T08:38:48.823Z,9.21
2018-12-01T08:39:48.826Z,9.20
2018-12-01T08:40:48.816Z,9.15
2018-12-01T08:41:48.822Z,9.20
2018-12-01T08:42:48.863Z,9.21
2018-12-01T08:43:48.821Z,9.18
2018-12-01T08:44:48.836Z,9.23
2018-12-01T08:45:48.812Z,9.35
2018-12-01T08:46:48.816Z,9.29
2018-12-01T08:47:48.821Z,9.51
2018-12-01T08:48:48.834Z,9.51
2018-12-01T08:49:48.816Z,9.51
2018-12-01T08:50:48.813Z,9.48
2018-12-01T08:51:48.805Z,9.47
2018-12-01T08:52:48.814Z,9.43
2018-12-01T08:53:48.817Z,9.43
2018-12-01T08:54:48.804Z,9.58
2018-12-01T08:55:48.804Z,9.72
2018-12-01T08:56:48.819Z,9.84
2018-12-01T08:57:48.807Z,10.17
2018-12-01T08:58:48.803Z,10.82
2018-12-01T08:59:48.818Z,11.39
2018-12-01T09:00:48.811Z,11.83
2018-12-01T09:01:48.823Z,12.34
2018-12-01T09:02:48.827Z,12.92
2018-12-01T09:03:48.830Z,12.92
2018-12-01T09:04:48.794Z,13.28
2018-12-01T09:05:48.844Z,13.22
2018-12-01T09:06:48.872Z,12.85
2018-12-01T09:07:48.802Z,12.75
2018-12-01T09:08:48.805Z,13.04
2018-12-01T09:09:48.833Z,12.78
2018-12-01T09:10:48.812Z,12.87
2018-12-01T09:11:48.805Z,13.05
2018-12-01T09:12:48.807Z,12.89
2018-12-01T09:13:48.817Z,12.50
2018-12-01T09:14:48.804Z,12.72
2018-12-01T09:15:48.829Z,12.87
2018-12-01T09:16:48.816Z,13.25
2018-12-01T09:17:48.834Z,13.03
2018-12-01T09:18:48.811Z,13.04
2018-12-01T09:19:48.845Z,12.65
2018-12-01T09:20:48.834Z,12.52
2018-12-01T09:21:48.818Z,12.28
2018-12-01T09:22:48.811Z,12.28
2018-12-01T09:23:48.814Z,12.12
2018-12-01T09:24:48.818Z,12.05
2018-12-01T09:25:48.822Z,12.20
2018-12-01T09:26:48.823Z,12.57
2018-12-01T09:27:48.818Z,12.28
2018-12-01T09:28:48.834Z,11.86
2018-12-01T09:29:48.846Z,11.91
2018-12-01T09:30:48.833Z,11.99
2018-12-01T09:31:48.875Z,11.86
2018-12-01T09:32:48.843Z,11.55
2018-12-01T09:33:48.852Z,11.28
2018-12-01T09:34:48.824Z,11.18
2018-12-01T09:35:48.824Z,11.22
2018-12-01T09:36:48.834Z,11.35
2018-12-01T09:37:48.838Z,11.25
2018-12-01T09:38:48.828Z,11.19
2018-12-01T09:39:48.836Z,11.07
2018-12-01T09:40:48.836Z,11.17
2018-12-01T09:41:48.836Z,11.11
2018-12-01T09:42:48.831Z,10.91
2018-12-01T09:43:48.837Z,10.96
2018-12-01T09:44:48.840Z,10.96
2018-12-01T09:45:48.844Z,10.97
2018-12-01T09:46:48.840Z,10.85
2018-12-01T09:47:48.845Z,10.88
2018-12-01T09:48:48.835Z,10.97
2018-12-01T09:49:48.843Z,11.10
2018-12-01T09:50:48.865Z,11.04
2018-12-01T09:51:48.879Z,11.15
2018-12-01T09:52:48.885Z,11.17
2018-12-01T09:53:48.888Z,11.07
2018-12-01T09:54:48.883Z,11.19
2018-12-01T09:55:48.864Z,11.37
2018-12-01T09:56:48.880Z,11.51
2018-12-01T09:57:48.864Z,11.61
2018-12-01T09:58:48.850Z,11.80
2018-12-01T09:59:48.856Z,11.73
2018-12-01T10:00:48.858Z,11.88
2018-12-01T10:01:48.857Z,11.86
2018-12-01T10:02:48.860Z,11.94
2018-12-01T10:03:48.869Z,12.07
2018-12-01T10:04:48.866Z,12.62
2018-12-01T10:05:48.877Z,12.72
2018-12-01T10:06:48.871Z,12.32
2018-12-01T10:07:48.888Z,12.35
2018-12-01T10:08:48.879Z,12.31
2018-12-01T10:09:48.860Z,12.31
2018-12-01T10:10:48.872Z,12.05
2018-12-01T10:11:50.529Z,11.78
2018-12-01T10:12:48.918Z,11.72
2018-12-01T10:13:48.865Z,11.58
2018-12-01T10:14:48.886Z,11.80
2018-12-01T10:15:48.892Z,11.70
2018-12-01T10:16:48.925Z,11.62
2018-12-01T10:17:48.906Z,11.46
2018-12-01T10:18:48.924Z,11.49
2018-12-01T10:19:48.877Z,11.61
2018-12-01T10:20:48.909Z,11.58
2018-12-01T10:21:48.896Z,11.51
2018-12-01T10:22:48.884Z,11.54
2018-12-01T10:23:48.879Z,11.55
2018-12-01T10:24:48.900Z,11.90
2018-12-01T10:25:48.890Z,12.07
2018-12-01T10:26:48.900Z,12.09
2018-12-01T10:27:48.894Z,11.95
2018-12-01T10:28:48.907Z,12.14
2018-12-01T10:29:48.895Z,12.29
2018-12-01T10:30:48.897Z,12.39
2018-12-01T10:31:48.897Z,12.57
2018-12-01T10:32:48.900Z,12.10
2018-12-01T10:33:48.911Z,12.34
2018-12-01T10:34:48.894Z,12.62
2018-12-01T10:35:48.894Z,12.67
2018-12-01T10:36:48.889Z,12.64
2018-12-01T10:37:48.905Z,12.41
2018-12-01T10:38:48.897Z,12.39
2018-12-01T10:39:48.893Z,12.31
2018-12-01T10:40:48.912Z,12.17
2018-12-01T10:41:48.911Z,12.07
2018-12-01T10:42:48.940Z,11.86
2018-12-01T10:43:48.917Z,11.61
2018-12-01T10:44:48.950Z,11.51
2018-12-01T10:45:48.941Z,11.55
2018-12-01T10:46:48.952Z,11.52
2018-12-01T10:47:48.948Z,11.94
2018-12-01T10:48:48.927Z,11.78
2018-12-01T10:49:48.926Z,11.65
2018-12-01T10:50:48.925Z,11.55
2018-12-01T10:51:48.926Z,11.43
2018-12-01T10:52:48.936Z,11.52
2018-12-01T10:53:48.938Z,11.52
2018-12-01T10:54:48.966Z,11.79
2018-12-01T10:55:48.936Z,12.23
2018-12-01T10:56:48.954Z,12.56
2018-12-01T10:57:48.925Z,12.95
2018-12-01T10:58:48.973Z,13.57
2018-12-01T10:59:48.925Z,13.59
2018-12-01T11:00:48.936Z,13.19
2018-12-01T11:01:48.934Z,13.05
2018-12-01T11:02:48.937Z,13.17
2018-12-01T11:03:48.937Z,12.75
2018-12-01T11:04:48.935Z,12.85
2018-12-01T11:05:48.933Z,13.01
2018-12-01T11:06:48.968Z,12.90
2018-12-01T11:07:48.986Z,12.82
2018-12-01T11:08:48.952Z,13.01
2018-12-01T11:09:48.951Z,12.60
2018-12-01T11:10:48.971Z,12.38
2018-12-01T11:11:48.960Z,12.38
2018-12-01T11:12:48.965Z,12.10
2018-12-01T11:13:48.974Z,12.23
2018-12-01T11:14:48.979Z,12.19
2018-12-01T11:15:48.975Z,12.05
2018-12-01T11:16:48.971Z,11.88
2018-12-01T11:17:48.984Z,11.64
2018-12-01T11:18:48.985Z,11.54
2018-12-01T11:19:48.975Z,11.51
2018-12-01T11:20:48.969Z,11.55
2018-12-01T11:21:48.986Z,11.62
2018-12-01T11:22:48.980Z,11.52
2018-12-01T11:23:48.976Z,11.51
2018-12-01T11:24:49.001Z,11.43
2018-12-01T11:25:48.985Z,11.55
2018-12-01T11:26:48.968Z,11.49
2018-12-01T11:27:49.001Z,11.40
2018-12-01T11:28:48.970Z,11.40
2018-12-01T11:29:48.970Z,11.33
2018-12-01T11:30:48.973Z,11.40
2018-12-01T11:31:48.977Z,11.51
2018-12-01T11:32:48.989Z,11.58
2018-12-01T11:33:48.994Z,11.47
2018-12-01T11:34:48.997Z,11.54
2018-12-01T11:35:49.023Z,11.46
2018-12-01T11:36:48.973Z,11.46
2018-12-01T11:37:48.972Z,11.43
2018-12-01T11:38:48.984Z,11.43
2018-12-01T11:39:48.980Z,11.36
2018-12-01T11:40:48.983Z,11.25
2018-12-01T11:41:48.996Z,11.33
2018-12-01T11:42:48.997Z,11.35
2018-12-01T11:43:48.990Z,11.21
2018-12-01T11:44:48.990Z,11.36
2018-12-01T11:45:48.983Z,11.43
2018-12-01T11:46:48.982Z,11.42
2018-12-01T11:47:48.993Z,11.42
2018-12-01T11:48:49.000Z,11.44
2018-12-01T11:49:48.986Z,11.32
2018-12-01T11:50:48.993Z,11.42
2018-12-01T11:51:49.047Z,11.43
2018-12-01T11:52:49.020Z,11.44
2018-12-01T11:53:49.014Z,11.39
2018-12-01T11:54:48.989Z,11.37
2018-12-01T11:55:48.999Z,11.40
2018-12-01T11:56:49.010Z,11.36
2018-12-01T11:57:48.999Z,11.51
2018-12-01T11:58:49.028Z,11.54
2018-12-01T11:59:48.999Z,11.44
2018-12-01T12:00:49.006Z,11.54
2018-12-01T12:01:49.001Z,11.54
2018-12-01T12:02:49.039Z,11.51
2018-12-01T12:03:49.013Z,11.54
2018-12-01T12:04:49.058Z,11.57
2018-12-01T12:05:49.007Z,11.60
2018-12-01T12:06:49.037Z,11.60
2018-12-01T12:07:49.036Z,11.67
2018-12-01T12:08:49.036Z,11.83
2018-12-01T12:09:49.012Z,11.78
2018-12-01T12:10:49.056Z,11.55
2018-12-01T12:11:49.002Z,11.55
2018-12-01T12:12:49.030Z,11.51
2018-12-01T12:13:49.006Z,11.46
2018-12-01T12:14:52.043Z,11.46
2018-12-01T12:15:49.027Z,11.54
2018-12-01T12:16:49.037Z,11.52
2018-12-01T12:17:49.020Z,11.60
2018-12-01T12:18:49.028Z,11.58
2018-12-01T12:19:49.005Z,11.44
2018-12-01T12:20:49.016Z,11.52
2018-12-01T12:21:49.033Z,11.54
2018-12-01T12:22:49.026Z,11.58
2018-12-01T12:23:49.040Z,11.60
2018-12-01T12:24:49.026Z,11.54
2018-12-01T12:25:49.060Z,11.54
2018-12-01T12:26:49.031Z,11.75
2018-12-01T12:27:49.044Z,11.65
2018-12-01T12:28:49.031Z,11.61
2018-12-01T12:29:49.068Z,11.69
2018-12-01T12:30:49.018Z,11.69
2018-12-01T12:31:49.761Z,11.67
2018-12-01T12:32:49.025Z,11.62
2018-12-01T12:33:49.085Z,11.64
2018-12-01T12:34:49.038Z,11.67
2018-12-01T12:35:49.054Z,11.70
2018-12-01T12:36:49.041Z,11.60
2018-12-01T12:37:49.013Z,11.62
2018-12-01T12:38:49.013Z,11.64
2018-12-01T12:39:49.023Z,11.61
2018-12-01T12:40:49.059Z,11.47
2018-12-01T12:41:49.029Z,11.39
2018-12-01T12:42:49.026Z,11.42
2018-12-01T12:43:49.030Z,11.42
2018-12-01T12:44:49.064Z,11.42
2018-12-01T12:45:49.051Z,11.42
2018-12-01T12:46:49.019Z,11.33
2018-12-01T12:47:49.037Z,11.37
2018-12-01T12:48:49.071Z,11.39
2018-12-01T12:49:49.025Z,11.29
2018-12-01T12:50:53.081Z,11.42
2018-12-01T12:51:49.042Z,11.37
2018-12-01T12:52:49.020Z,11.28
2018-12-01T12:53:49.054Z,11.37
2018-12-01T12:54:49.050Z,11.37
2018-12-01T12:55:49.062Z,11.37
2018-12-01T12:56:49.044Z,11.36
2018-12-01T12:57:49.053Z,11.32
2018-12-01T12:58:49.028Z,11.39
2018-12-01T12:59:49.046Z,11.37
2018-12-01T13:00:49.040Z,11.39
2018-12-01T13:01:49.044Z,11.39
2018-12-01T13:02:49.046Z,11.37
2018-12-01T13:03:49.036Z,11.42
2018-12-01T13:04:49.053Z,11.39
2018-12-01T13:05:49.042Z,11.40
2018-12-01T13:06:49.052Z,11.39
2018-12-01T13:07:49.075Z,11.44
2018-12-01T13:08:49.065Z,11.39
2018-12-01T13:09:49.039Z,11.42
2018-12-01T13:10:49.052Z,11.42